createdAt,value
2018-12-13T00:02:10.495Z,98900.00
2018-12-13T00:04:37.435Z,98898.00
2018-12-13T00:07:04.415Z,98909.00
2018-12-13T00:09:31.495Z,98901.00
2018-12-13T00:11:58.597Z,98907.00
2018-12-13T00:14:25.634Z,98909.00
2018-12-13T00:16:52.594Z,98910.00
2018-12-13T00:19:19.573Z,98912.00
2018-12-13T00:21:46.654Z,98916.00
2018-12-13T00:24:13.715Z,98913.00
2018-12-13T00:26:40.677Z,98901.00
2018-12-13T00:29:07.754Z,98900.00
2018-12-13T00:31:34.754Z,98908.00
2018-12-13T00:34:01.735Z,98901.00
2018-12-13T00:36:28.754Z,98903.00
2018-12-13T00:39:04.813Z,98905.00
2018-12-13T00:41:31.914Z,98901.00
2018-12-13T00:43:58.955Z,98911.00
2018-12-13T00:46:25.994Z,98908.00
2018-12-13T00:48:53.054Z,98909.00
2018-12-13T00:51:20.075Z,98909.00
2018-12-13T00:53:47.117Z,98911.00
2018-12-13T00:56:14.075Z,98911.00
2018-12-13T00:58:41.393Z,98906.00
2018-12-13T01:01:08.375Z,98904.00
2018-12-13T01:03:35.436Z,98904.00
2018-12-13T01:06:02.435Z,98912.00
2018-12-13T01:08:29.475Z,98914.00
2018-12-13T01:10:56.534Z,98910.00
2018-12-13T01:13:23.535Z,98911.00
2018-12-13T01:15:50.534Z,98917.00
2018-12-13T01:18:17.594Z,98914.00
2018-12-13T01:20:44.635Z,98916.00
2018-12-13T01:23:11.794Z,98913.00
2018-12-13T01:25:38.875Z,98913.00
2018-12-13T01:28:06.276Z,98904.00
2018-12-13T01:30:33.255Z,98914.00
2018-12-13T01:33:00.236Z,98914.00
2018-12-13T01:35:27.653Z,98911.00
2018-12-13T01:38:01.596Z,98907.00
2018-12-13T01:40:28.677Z,98910.00
2018-12-13T01:42:55.719Z,98906.00
2018-12-13T01:45:22.675Z,98902.00
2018-12-13T01:47:50.455Z,98903.00
2018-12-13T01:50:17.435Z,98898.00
2018-12-13T01:52:44.395Z,98908.00
2018-12-13T01:55:11.436Z,98904.00
2018-12-13T01:57:38.415Z,98898.00
2018-12-13T02:00:12.535Z,98895.00
2018-12-13T02:02:46.637Z,98888.00
2018-12-13T02:05:13.695Z,98888.00
2018-12-13T02:07:40.696Z,98894.00
2018-12-13T02:10:07.855Z,98891.00
2018-12-13T02:12:34.839Z,98897.00
2018-12-13T02:15:01.916Z,98887.00
2018-12-13T02:17:28.856Z,98883.00
2018-12-13T02:20:03.855Z,98879.00
2018-12-13T02:22:30.895Z,98877.00
2018-12-13T02:24:57.974Z,98883.00
2018-12-13T02:27:24.935Z,98882.00
2018-12-13T02:29:52.055Z,98867.00
2018-12-13T02:32:19.036Z,98867.00
2018-12-13T02:34:46.159Z,98859.00
2018-12-13T02:37:13.176Z,98862.00
2018-12-13T02:39:40.452Z,98858.00
2018-12-13T02:42:07.669Z,98854.00
2018-12-13T02:44:34.734Z,98845.00
2018-12-13T02:47:01.915Z,98845.00
2018-12-13T02:49:28.931Z,98837.00
2018-12-13T02:51:55.911Z,98842.00
2018-12-13T02:54:22.892Z,98834.00
2018-12-13T02:56:49.931Z,98841.00
2018-12-13T02:59:16.911Z,98834.00
2018-12-13T03:01:43.991Z,98834.00
2018-12-13T03:04:10.972Z,98824.00
2018-12-13T03:06:38.013Z,98824.00
2018-12-13T03:09:06.733Z,98828.00
2018-12-13T03:11:33.672Z,98824.00
2018-12-13T03:14:00.693Z,98822.00
2018-12-13T03:16:27.950Z,98813.00
2018-12-13T03:18:55.191Z,98812.00
2018-12-13T03:21:22.239Z,98806.00
2018-12-13T03:23:49.335Z,98810.00
2018-12-13T03:26:16.452Z,98802.00
2018-12-13T03:28:43.646Z,98798.00
2018-12-13T03:31:10.694Z,98784.00
2018-12-13T03:33:37.771Z,98788.00
2018-12-13T03:36:04.773Z,98799.00
2018-12-13T03:38:31.691Z,98794.00
2018-12-13T03:40:58.692Z,98786.00
2018-12-13T03:43:25.653Z,98793.00
2018-12-13T03:45:52.673Z,98785.00
2018-12-13T03:48:19.672Z,98783.00
2018-12-13T03:50:46.652Z,98793.00
2018-12-13T03:53:13.573Z,98784.00
2018-12-13T03:55:40.554Z,98773.00
2018-12-13T03:58:07.591Z,98780.00
2018-12-13T04:00:35.113Z,98785.00
2018-12-13T04:03:02.071Z,98774.00
2018-12-13T04:05:29.051Z,98776.00
2018-12-13T04:07:56.051Z,98777.00
2018-12-13T04:10:23.151Z,98771.00
2018-12-13T04:12:50.132Z,98779.00
2018-12-13T04:15:17.132Z,98775.00
2018-12-13T04:17:44.075Z,98772.00
2018-12-13T04:20:11.114Z,98766.00
2018-12-13T04:22:38.113Z,98769.00
2018-12-13T04:25:05.225Z,98765.00
2018-12-13T04:27:32.231Z,98769.00
2018-12-13T04:29:59.191Z,98771.00
2018-12-13T04:32:26.198Z,98756.00
2018-12-13T04:34:53.174Z,98768.00
2018-12-13T04:37:20.150Z,98765.00
2018-12-13T04:39:47.150Z,98759.00
2018-12-13T04:42:14.152Z,98759.00
2018-12-13T04:44:41.091Z,98749.00
2018-12-13T04:47:08.092Z,98756.00
2018-12-13T04:49:35.078Z,98753.00
2018-12-13T04:52:02.059Z,98749.00
2018-12-13T04:54:29.031Z,98751.00
2018-12-13T04:56:56.036Z,98760.00
2018-12-13T04:59:23.051Z,98752.00
2018-12-13T05:01:50.030Z,98749.00
2018-12-13T05:04:16.971Z,98750.00
2018-12-13T05:06:44.029Z,98744.00
2018-12-13T05:09:11.073Z,98747.00
2018-12-13T05:11:38.131Z,98748.00
2018-12-13T05:14:05.090Z,98747.00
2018-12-13T05:16:32.051Z,98741.00
2018-12-13T05:18:59.070Z,98741.00
2018-12-13T05:21:26.033Z,98741.00
2018-12-13T05:23:53.050Z,98739.00
2018-12-13T05:26:19.970Z,98740.00
2018-12-13T05:28:46.970Z,98749.00
2018-12-13T05:31:13.972Z,98736.00
2018-12-13T05:33:40.950Z,98734.00
2018-12-13T05:36:14.950Z,98734.00
2018-12-13T05:38:42.000Z,98738.00
2018-12-13T05:41:08.972Z,98736.00
2018-12-13T05:43:35.971Z,98732.00
2018-12-13T05:46:03.010Z,98737.00
2018-12-13T05:48:29.970Z,98728.00
2018-12-13T05:50:57.495Z,98735.00
2018-12-13T05:53:24.521Z,98731.00
2018-12-13T05:55:51.460Z,98733.00
2018-12-13T05:58:18.420Z,98736.00
2018-12-13T06:00:45.440Z,98727.00
2018-12-13T06:03:12.461Z,98725.00
2018-12-13T06:05:39.501Z,98730.00
2018-12-13T06:08:06.542Z,98736.00
2018-12-13T06:10:34.121Z,98735.00
2018-12-13T06:13:01.082Z,98733.00
2018-12-13T06:15:28.041Z,98733.00
2018-12-13T06:17:56.100Z,98731.00
2018-12-13T06:20:23.081Z,98731.00
2018-12-13T06:22:50.061Z,98727.00
2018-12-13T06:25:17.142Z,98726.00
2018-12-13T06:27:44.061Z,98736.00
2018-12-13T06:30:11.122Z,98735.00
2018-12-13T06:32:38.141Z,98737.00
2018-12-13T06:35:05.461Z,98726.00
2018-12-13T06:37:32.442Z,98738.00
2018-12-13T06:39:59.463Z,98736.00
2018-12-13T06:42:26.461Z,98735.00
2018-12-13T06:44:53.481Z,98726.00
2018-12-13T06:47:20.442Z,98725.00
2018-12-13T06:49:47.422Z,98720.00
2018-12-13T06:52:14.382Z,98739.00
2018-12-13T06:54:41.406Z,98735.00
2018-12-13T06:57:08.361Z,98735.00
2018-12-13T06:59:35.341Z,98737.00
2018-12-13T07:02:02.702Z,98737.00
2018-12-13T07:04:29.682Z,98733.00
2018-12-13T07:06:56.700Z,98736.00
2018-12-13T07:09:30.681Z,98737.00
2018-12-13T07:11:57.762Z,98734.00
2018-12-13T07:14:24.782Z,98736.00
2018-12-13T07:16:51.882Z,98736.00
2018-12-13T07:19:18.941Z,98746.00
2018-12-13T07:21:45.982Z,98730.00
2018-12-13T07:24:12.981Z,98732.00
2018-12-13T07:26:40.121Z,98731.00
2018-12-13T07:29:07.182Z,98726.00
2018-12-13T07:31:34.282Z,98734.00
2018-12-13T07:34:01.299Z,98728.00
2018-12-13T07:36:28.259Z,98728.00
2018-12-13T07:38:55.198Z,98726.00
2018-12-13T07:41:22.258Z,98719.00
2018-12-13T07:43:49.217Z,98722.00
2018-12-13T07:46:16.258Z,98724.00
2018-12-13T07:48:43.298Z,98725.00
2018-12-13T07:51:10.339Z,98729.00
2018-12-13T07:53:37.396Z,98717.00
2018-12-13T07:56:04.478Z,98725.00
2018-12-13T07:58:31.397Z,98727.00
2018-12-13T08:00:58.442Z,98726.00
2018-12-13T08:03:25.483Z,98719.00
2018-12-13T08:05:52.518Z,98721.00
2018-12-13T08:08:21.048Z,98711.00
2018-12-13T08:10:48.318Z,98722.00
2018-12-13T08:13:15.300Z,98722.00
2018-12-13T08:15:42.298Z,98720.00
2018-12-13T08:18:09.299Z,98722.00
2018-12-13T08:20:36.218Z,98724.00
2018-12-13T08:23:03.619Z,98720.00
2018-12-13T08:25:30.679Z,98717.00
2018-12-13T08:27:57.678Z,98722.00
2018-12-13T08:30:24.757Z,98723.00
2018-12-13T08:32:51.679Z,98724.00
2018-12-13T08:35:18.658Z,98726.00
2018-12-13T08:37:52.558Z,98717.00
2018-12-13T08:40:20.041Z,98722.00
2018-12-13T08:42:47.519Z,98711.00
2018-12-13T08:45:14.479Z,98715.00
2018-12-13T08:47:41.479Z,98718.00
2018-12-13T08:50:08.638Z,98719.00
2018-12-13T08:52:35.679Z,98717.00
2018-12-13T08:55:03.519Z,98713.00
2018-12-13T08:57:30.518Z,98709.00
2018-12-13T08:59:57.519Z,98712.00
2018-12-13T09:02:24.518Z,98714.00
2018-12-13T09:04:51.518Z,98710.00
2018-12-13T09:07:18.518Z,98715.00
2018-12-13T09:09:45.519Z,98705.00
2018-12-13T09:12:12.639Z,98712.00
2018-12-13T09:14:39.660Z,98703.00
2018-12-13T09:17:06.719Z,98712.00
2018-12-13T09:19:33.743Z,98702.00
2018-12-13T09:22:00.718Z,98709.00
2018-12-13T09:24:27.700Z,98708.00
2018-12-13T09:26:54.699Z,98702.00
2018-12-13T09:29:21.659Z,98710.00
2018-12-13T09:31:48.639Z,98707.00
2018-12-13T09:34:15.619Z,98704.00
2018-12-13T09:36:42.644Z,98699.00
2018-12-13T09:39:09.659Z,98701.00
2018-12-13T09:41:36.639Z,98696.00
2018-12-13T09:44:03.679Z,98684.00
2018-12-13T09:46:30.759Z,98692.00
2018-12-13T09:48:57.719Z,98682.00
2018-12-13T09:51:31.940Z,98685.00
2018-12-13T09:53:58.959Z,98684.00
2018-12-13T09:56:25.978Z,98673.00
2018-12-13T09:58:53.082Z,98670.00
2018-12-13T10:01:20.240Z,98663.00
2018-12-13T10:03:47.419Z,98656.00
2018-12-13T10:06:14.418Z,98668.00
2018-12-13T10:08:46.294Z,98676.00
2018-12-13T10:11:11.179Z,98660.00
2018-12-13T10:13:38.239Z,98647.00
2018-12-13T10:16:05.240Z,98648.00
2018-12-13T10:18:32.273Z,98652.00
2018-12-13T10:20:59.238Z,98648.00
2018-12-13T10:23:26.240Z,98646.00
2018-12-13T10:25:59.405Z,98653.00
2018-12-13T10:28:22.239Z,98645.00
2018-12-13T10:30:49.242Z,98636.00
2018-12-13T10:33:16.300Z,98649.00
2018-12-13T10:35:43.437Z,98628.00
2018-12-13T10:38:10.475Z,98629.00
2018-12-13T10:40:37.478Z,98632.00
2018-12-13T10:43:04.554Z,98645.00
2018-12-13T10:45:31.516Z,98637.00
2018-12-13T10:47:58.475Z,98639.00
2018-12-13T10:50:25.503Z,98626.00
2018-12-13T10:52:52.516Z,98613.00
2018-12-13T10:55:19.496Z,98605.00
2018-12-13T10:57:46.516Z,98597.00
2018-12-13T11:00:19.577Z,98618.00
2018-12-13T11:03:14.935Z,98617.00
2018-12-13T11:05:42.015Z,98599.00
2018-12-13T11:08:08.975Z,98603.00
2018-12-13T11:10:42.997Z,98606.00
2018-12-13T11:13:09.995Z,98604.00
2018-12-13T11:15:36.995Z,98603.00
2018-12-13T11:18:04.114Z,98604.00
2018-12-13T11:20:31.135Z,98592.00
2018-12-13T11:22:58.136Z,98586.00
2018-12-13T11:25:25.296Z,98589.00
2018-12-13T11:28:24.995Z,98597.00
2018-12-13T11:30:51.995Z,98589.00
2018-12-13T11:33:18.994Z,98590.00
2018-12-13T11:35:46.035Z,98584.00
2018-12-13T11:38:13.114Z,98570.00
2018-12-13T11:40:40.120Z,98589.00
2018-12-13T11:43:07.134Z,98578.00
2018-12-13T11:45:34.155Z,98570.00
2018-12-13T11:48:01.196Z,98577.00
2018-12-13T11:50:28.174Z,98573.00
2018-12-13T11:52:55.557Z,98589.00
2018-12-13T11:55:33.497Z,98556.00
2018-12-13T11:58:02.036Z,98570.00
2018-12-13T12:00:29.097Z,98582.00
2018-12-13T12:02:55.995Z,98577.00
2018-12-13T12:05:22.997Z,98580.00
2018-12-13T12:07:50.057Z,98574.00
2018-12-13T12:10:17.135Z,98573.00
2018-12-13T12:12:44.196Z,98581.00
2018-12-13T12:15:11.436Z,98574.00
2018-12-13T12:17:39.096Z,98573.00
2018-12-13T12:20:07.154Z,98575.00
2018-12-13T12:22:34.195Z,98574.00
2018-12-13T12:25:01.160Z,98567.00
2018-12-13T12:27:28.115Z,98568.00
2018-12-13T12:29:55.136Z,98589.00
2018-12-13T12:32:29.015Z,98582.00
2018-12-13T12:34:55.996Z,98561.00
2018-12-13T12:37:23.016Z,98561.00
2018-12-13T12:39:49.961Z,98550.00
2018-12-13T12:42:16.957Z,98562.00
2018-12-13T12:44:44.055Z,98555.00
2018-12-13T12:47:11.059Z,98569.00
2018-12-13T12:49:38.275Z,98555.00
2018-12-13T12:52:12.195Z,98560.00
2018-12-13T12:54:39.175Z,98545.00
2018-12-13T12:57:06.175Z,98557.00
2018-12-13T12:59:33.156Z,98560.00
2018-12-13T13:02:00.456Z,98561.00
2018-12-13T13:04:27.516Z,98566.00
2018-12-13T13:06:54.492Z,98555.00
2018-12-13T13:09:25.051Z,98549.00
2018-12-13T13:11:50.637Z,98554.00
2018-12-13T13:14:17.576Z,98542.00
2018-12-13T13:16:44.636Z,98553.00
2018-12-13T13:19:11.656Z,98551.00
2018-12-13T13:21:38.656Z,98565.00
2018-12-13T13:24:05.636Z,98535.00
2018-12-13T13:26:32.696Z,98558.00
2018-12-13T13:28:59.696Z,98547.00
2018-12-13T13:31:26.696Z,98549.00
2018-12-13T13:33:53.756Z,98550.00
2018-12-13T13:36:27.915Z,98544.00
2018-12-13T13:38:54.896Z,98553.00
2018-12-13T13:41:21.917Z,98556.00
2018-12-13T13:43:48.899Z,98568.00
2018-12-13T13:46:15.835Z,98556.00
2018-12-13T13:48:42.837Z,98559.00
2018-12-13T13:51:09.897Z,98553.00
2018-12-13T13:53:37.256Z,98559.00
2018-12-13T13:56:04.375Z,98558.00
2018-12-13T13:58:31.036Z,98555.00
2018-12-13T14:00:58.375Z,98556.00
2018-12-13T14:03:25.397Z,98556.00
2018-12-13T14:05:52.437Z,98563.00
2018-12-13T14:08:19.637Z,98549.00
2018-12-13T14:10:46.695Z,98572.00
2018-12-13T14:13:14.031Z,98576.00
2018-12-13T14:15:41.036Z,98555.00
2018-12-13T14:18:08.071Z,98572.00
2018-12-13T14:20:35.210Z,98572.00
2018-12-13T14:23:02.039Z,98573.00
2018-12-13T14:25:28.891Z,98586.00
2018-12-13T14:27:56.311Z,98559.00
2018-12-13T14:30:23.271Z,98558.00
2018-12-13T14:32:50.231Z,98560.00
2018-12-13T14:35:17.350Z,98580.00
2018-12-13T14:37:44.350Z,98577.00
2018-12-13T14:40:11.350Z,98562.00
2018-12-13T14:42:38.371Z,98588.00
2018-12-13T14:45:05.470Z,98584.00
2018-12-13T14:47:32.682Z,98583.00
2018-12-13T14:49:59.720Z,98583.00
2018-12-13T14:52:26.675Z,98574.00
2018-12-13T14:54:54.177Z,98572.00
2018-12-13T14:57:20.992Z,98558.00
2018-12-13T14:59:48.021Z,98575.00
2018-12-13T15:02:14.978Z,98548.00
2018-12-13T15:04:41.986Z,98586.00
2018-12-13T15:07:08.929Z,98578.00
2018-12-13T15:09:35.808Z,98551.00
2018-12-13T15:12:02.768Z,98567.00
2018-12-13T15:14:29.826Z,98566.00
2018-12-13T15:16:56.749Z,98559.00
2018-12-13T15:19:23.729Z,98573.00
2018-12-13T15:21:50.828Z,98562.00
2018-12-13T15:24:18.210Z,98556.00
2018-12-13T15:26:45.148Z,98564.00
2018-12-13T15:29:12.919Z,98569.00
2018-12-13T15:31:39.950Z,98563.00
2018-12-13T15:34:06.998Z,98577.00
2018-12-13T15:36:33.997Z,98580.00
2018-12-13T15:39:00.917Z,98573.00
2018-12-13T15:41:27.936Z,98573.00
2018-12-13T15:43:54.860Z,98588.00
2018-12-13T15:46:21.862Z,98572.00
2018-12-13T15:48:55.825Z,98566.00
2018-12-13T15:51:22.804Z,98577.00
2018-12-13T15:53:49.796Z,98577.00
2018-12-13T15:56:17.663Z,98559.00
2018-12-13T15:58:44.676Z,98581.00
2018-12-13T16:01:11.629Z,98571.00
2018-12-13T16:03:38.482Z,98580.00
2018-12-13T16:06:05.496Z,98569.00
2018-12-13T16:08:32.457Z,98576.00
2018-12-13T16:10:59.376Z,98590.00
2018-12-13T16:13:26.376Z,98590.00
2018-12-13T16:15:53.458Z,98603.00
2018-12-13T16:18:20.480Z,98573.00
2018-12-13T16:20:47.631Z,98576.00
2018-12-13T16:23:14.605Z,98570.00
2018-12-13T16:25:41.577Z,98581.00
2018-12-13T16:28:08.599Z,98577.00
2018-12-13T16:30:35.718Z,98584.00
2018-12-13T16:33:02.677Z,98589.00
2018-12-13T16:35:29.663Z,98570.00
2018-12-13T16:38:03.577Z,98562.00
2018-12-13T16:40:31.177Z,98575.00
2018-12-13T16:42:58.218Z,98586.00
2018-12-13T16:45:25.336Z,98583.00
2018-12-13T16:47:52.358Z,98589.00
2018-12-13T16:50:19.537Z,98583.00
2018-12-13T16:52:46.527Z,98574.00
2018-12-13T16:55:13.452Z,98585.00
2018-12-13T16:57:40.890Z,98586.00
2018-12-13T17:00:10.895Z,98593.00
2018-12-13T17:02:37.749Z,98595.00
2018-12-13T17:05:05.188Z,98594.00
2018-12-13T17:07:32.287Z,98588.00
2018-12-13T17:09:59.328Z,98594.00
2018-12-13T17:12:26.309Z,98601.00
2018-12-13T17:14:53.267Z,98592.00
2018-12-13T17:17:20.328Z,98596.00
2018-12-13T17:19:47.108Z,98592.00
2018-12-13T17:22:14.151Z,98588.00
2018-12-13T17:24:41.089Z,98605.00
2018-12-13T17:27:08.157Z,98592.00
2018-12-13T17:29:35.117Z,98601.00
2018-12-13T17:32:02.384Z,98600.00
2018-12-13T17:34:29.355Z,98591.00
2018-12-13T17:36:56.336Z,98586.00
2018-12-13T17:39:23.434Z,98594.00
2018-12-13T17:41:50.375Z,98593.00
2018-12-13T17:44:17.295Z,98593.00
2018-12-13T17:46:44.297Z,98588.00
2018-12-13T17:49:11.214Z,98596.00
2018-12-13T17:51:38.235Z,98596.00
2018-12-13T17:54:05.315Z,98599.00
2018-12-13T17:56:32.334Z,98600.00
2018-12-13T17:58:59.338Z,98604.00
2018-12-13T18:01:26.314Z,98604.00
2018-12-13T18:03:53.417Z,98604.00
2018-12-13T18:06:20.434Z,98601.00
2018-12-13T18:08:47.395Z,98600.00
2018-12-13T18:11:14.434Z,98603.00
2018-12-13T18:13:41.426Z,98610.00
2018-12-13T18:16:08.503Z,98613.00
2018-12-13T18:18:35.502Z,98602.00
2018-12-13T18:21:02.544Z,98605.00
2018-12-13T18:23:30.043Z,98615.00
2018-12-13T18:25:57.122Z,98600.00
2018-12-13T18:28:24.484Z,98611.00
2018-12-13T18:30:51.463Z,98618.00
2018-12-13T18:33:18.524Z,98615.00
2018-12-13T18:35:45.563Z,98620.00
2018-12-13T18:38:12.543Z,98620.00
2018-12-13T18:40:40.024Z,98616.00
2018-12-13T18:43:07.084Z,98616.00
2018-12-13T18:45:36.217Z,98618.00
2018-12-13T18:48:03.524Z,98615.00
2018-12-13T18:50:30.645Z,98612.00
2018-12-13T18:52:57.783Z,98621.00
2018-12-13T18:55:24.797Z,98624.00
2018-12-13T18:57:52.808Z,98621.00
2018-12-13T19:00:19.641Z,98628.00
2018-12-13T19:02:46.657Z,98632.00
2018-12-13T19:05:13.594Z,98632.00
2018-12-13T19:07:40.589Z,98629.00
2018-12-13T19:10:07.635Z,98638.00
2018-12-13T19:12:34.655Z,98634.00
2018-12-13T19:15:01.903Z,98631.00
2018-12-13T19:17:28.830Z,98642.00
2018-12-13T19:19:55.850Z,98635.00
2018-12-13T19:22:22.810Z,98636.00
2018-12-13T19:24:49.810Z,98641.00
2018-12-13T19:27:16.870Z,98648.00
2018-12-13T19:29:43.929Z,98652.00
2018-12-13T19:32:10.870Z,98651.00
2018-12-13T19:34:38.251Z,98648.00
2018-12-13T19:37:05.150Z,98648.00
2018-12-13T19:39:32.092Z,98649.00
2018-12-13T19:41:59.173Z,98636.00
2018-12-13T19:44:26.130Z,98644.00
2018-12-13T19:46:53.210Z,98648.00
2018-12-13T19:49:20.649Z,98653.00
2018-12-13T19:51:47.649Z,98648.00
2018-12-13T19:54:14.930Z,98657.00
2018-12-13T19:56:42.031Z,98656.00
2018-12-13T19:59:09.042Z,98647.00
2018-12-13T20:01:36.163Z,98656.00
2018-12-13T20:04:03.322Z,98655.00
2018-12-13T20:06:30.463Z,98669.00
2018-12-13T20:08:57.835Z,98665.00
2018-12-13T20:11:24.873Z,98664.00
2018-12-13T20:13:52.047Z,98667.00
2018-12-13T20:16:19.116Z,98664.00
2018-12-13T20:18:46.378Z,98657.00
2018-12-13T20:21:13.562Z,98653.00
2018-12-13T20:23:41.674Z,98654.00
2018-12-13T20:26:09.315Z,98666.00
2018-12-13T20:28:36.433Z,98674.00
2018-12-13T20:31:03.576Z,98664.00
2018-12-13T20:33:30.635Z,98656.00
2018-12-13T20:35:57.716Z,98662.00
2018-12-13T20:38:24.977Z,98668.00
2018-12-13T20:40:52.114Z,98660.00
2018-12-13T20:43:19.135Z,98655.00
2018-12-13T20:45:46.415Z,98666.00
2018-12-13T20:48:13.417Z,98668.00
2018-12-13T20:50:40.418Z,98665.00
2018-12-13T20:53:07.776Z,98662.00
2018-12-13T20:55:34.836Z,98662.00
2018-12-13T20:58:01.815Z,98658.00
2018-12-13T21:00:28.874Z,98669.00
2018-12-13T21:02:55.894Z,98672.00
2018-12-13T21:05:22.875Z,98662.00
2018-12-13T21:07:52.075Z,98669.00
2018-12-13T21:10:19.054Z,98663.00
2018-12-13T21:12:46.134Z,98667.00
2018-12-13T21:15:13.097Z,98654.00
2018-12-13T21:17:40.294Z,98661.00
2018-12-13T21:20:07.495Z,98658.00
2018-12-13T21:22:34.634Z,98664.00
2018-12-13T21:25:01.737Z,98660.00
2018-12-13T21:27:28.739Z,98660.00
2018-12-13T21:29:55.758Z,98651.00
2018-12-13T21:32:22.729Z,98659.00
2018-12-13T21:34:57.588Z,98665.00
2018-12-13T21:37:24.547Z,98661.00
2018-12-13T21:39:51.487Z,98658.00
2018-12-13T21:42:18.507Z,98665.00
2018-12-13T21:44:45.427Z,98652.00
2018-12-13T21:47:12.446Z,98649.00
2018-12-13T21:49:39.346Z,98642.00
2018-12-13T21:52:06.408Z,98650.00
2018-12-13T21:54:33.346Z,98656.00
2018-12-13T21:57:00.848Z,98665.00
2018-12-13T21:59:27.766Z,98658.00
2018-12-13T22:01:54.866Z,98662.00
2018-12-13T22:04:21.806Z,98655.00
2018-12-13T22:06:48.806Z,98650.00
2018-12-13T22:09:16.108Z,98652.00
2018-12-13T22:11:43.126Z,98660.00
2018-12-13T22:14:10.287Z,98659.00
2018-12-13T22:16:37.286Z,98652.00
2018-12-13T22:19:04.227Z,98656.00
2018-12-13T22:21:31.346Z,98672.00
2018-12-13T22:23:58.287Z,98666.00
2018-12-13T22:26:25.587Z,98663.00
2018-12-13T22:28:52.612Z,98659.00
2018-12-13T22:31:19.607Z,98662.00
2018-12-13T22:33:46.646Z,98671.00
2018-12-13T22:36:13.646Z,98664.00
2018-12-13T22:38:40.687Z,98675.00
2018-12-13T22:41:07.687Z,98672.00
2018-12-13T22:43:34.748Z,98663.00
2018-12-13T22:46:03.627Z,98672.00
2018-12-13T22:48:32.547Z,98666.00
2018-12-13T22:51:00.370Z,98665.00
2018-12-13T22:53:27.367Z,98664.00
2018-12-13T22:55:54.387Z,98658.00
2018-12-13T22:58:21.529Z,98662.00
2018-12-13T23:00:48.608Z,98667.00
2018-12-13T23:03:15.807Z,98658.00
2018-12-13T23:05:42.847Z,98658.00
2018-12-13T23:08:09.827Z,98657.00
2018-12-13T23:10:43.747Z,98658.00
2018-12-13T23:13:10.787Z,98659.00
2018-12-13T23:15:37.767Z,98654.00
2018-12-13T23:18:04.947Z,98652.00
2018-12-13T23:20:32.067Z,98652.00
2018-12-13T23:22:59.086Z,98651.00
2018-12-13T23:25:26.067Z,98654.00
2018-12-13T23:27:53.090Z,98649.00
2018-12-13T23:30:20.067Z,98646.00
2018-12-13T23:32:47.066Z,98650.00
2018-12-13T23:35:14.006Z,98637.00
2018-12-13T23:37:41.026Z,98652.00
2018-12-13T23:40:08.027Z,98649.00
2018-12-13T23:42:34.967Z,98651.00
2018-12-13T23:45:02.027Z,98656.00
2018-12-13T23:47:28.947Z,98652.00
2018-12-13T23:49:55.927Z,98652.00
2018-12-13T23:52:22.867Z,98648.00
2018-12-13T23:54:49.887Z,98649.00
2018-12-13T23:57:16.834Z,98639.00
2018-12-13T23:59:43.747Z,98637.00
